createdAt,value
2023-04-19T00:00:31.846Z,1021.90
2023-04-19T00:01:31.849Z,1021.99
2023-04-19T00:02:32.008Z,1021.95
2023-04-19T00:03:32.211Z,1021.94
2023-04-19T00:04:31.983Z,1021.95
2023-04-19T00:05:32.062Z,1021.94
2023-04-19T00:06:31.910Z,1021.85
2023-04-19T00:07:31.924Z,1021.88
2023-04-19T00:08:31.926Z,1021.89
2023-04-19T00:09:31.948Z,1021.86
2023-04-19T00:10:31.946Z,1021.87
2023-04-19T00:11:31.961Z,1021.82
2023-04-19T00:12:31.972Z,1021.79
2023-04-19T00:13:31.984Z,1021.77
2023-04-19T00:14:31.986Z,1021.77
2023-04-19T00:15:32.006Z,1021.80
2023-04-19T00:16:32.124Z,1021.79
2023-04-19T00:17:32.046Z,1021.82
2023-04-19T00:18:32.041Z,1021.74
2023-04-19T00:19:32.048Z,1021.83
2023-04-19T00:20:32.059Z,1021.80
2023-04-19T00:21:32.067Z,1021.73
2023-04-19T00:22:32.080Z,1021.75
2023-04-19T00:23:32.092Z,1021.68
2023-04-19T00:24:32.102Z,1021.72
2023-04-19T00:25:32.131Z,1021.75
2023-04-19T00:26:32.124Z,1021.65
2023-04-19T00:27:32.156Z,1021.70
2023-04-19T00:28:32.155Z,1021.72
2023-04-19T00:29:32.159Z,1021.76
2023-04-19T00:30:32.216Z,1021.69
2023-04-19T00:31:32.219Z,1021.71
2023-04-19T00:32:32.248Z,1021.65
2023-04-19T00:33:32.204Z,1021.73
2023-04-19T00:34:32.220Z,1021.67
2023-04-19T00:35:32.225Z,1021.69
2023-04-19T00:36:32.233Z,1021.72
2023-04-19T00:37:32.252Z,1021.70
2023-04-19T00:38:32.262Z,1021.72
2023-04-19T00:39:32.271Z,1021.72
2023-04-19T00:40:32.283Z,1021.69
2023-04-19T00:41:32.290Z,1021.68
2023-04-19T00:42:32.330Z,1021.63
2023-04-19T00:43:32.314Z,1021.65
2023-04-19T00:44:32.324Z,1021.71
2023-04-19T00:45:32.344Z,1021.65
2023-04-19T00:46:32.387Z,1021.62
2023-04-19T00:47:32.382Z,1021.62
2023-04-19T00:48:32.399Z,1021.66
2023-04-19T00:49:32.381Z,1021.69
2023-04-19T00:50:32.392Z,1021.72
2023-04-19T00:51:32.401Z,1021.70
2023-04-19T00:52:32.418Z,1021.68
2023-04-19T00:53:32.425Z,1021.71
2023-04-19T00:54:32.433Z,1021.72
2023-04-19T00:55:32.445Z,1021.63
2023-04-19T00:56:32.456Z,1021.69
2023-04-19T00:57:32.489Z,1021.73
2023-04-19T00:58:32.481Z,1021.67
2023-04-19T00:59:32.514Z,1021.76
2023-04-19T01:00:32.503Z,1021.67
2023-04-19T01:01:32.573Z,1021.73
2023-04-19T01:02:32.597Z,1021.80
2023-04-19T01:03:32.795Z,1021.72
2023-04-19T01:04:32.677Z,1021.75
2023-04-19T01:05:32.562Z,1021.79
2023-04-19T01:06:32.573Z,1021.76
2023-04-19T01:07:32.578Z,1021.79
2023-04-19T01:08:32.590Z,1021.75
2023-04-19T01:09:32.600Z,1021.81
2023-04-19T01:10:32.616Z,1021.76
2023-04-19T01:11:32.626Z,1021.78
2023-04-19T01:12:32.635Z,1021.70
2023-04-19T01:13:32.643Z,1021.79
2023-04-19T01:14:32.654Z,1021.71
2023-04-19T01:15:32.709Z,1021.84
2023-04-19T01:16:32.718Z,1021.73
2023-04-19T01:17:32.729Z,1021.77
2023-04-19T01:18:32.703Z,1021.79
2023-04-19T01:19:32.707Z,1021.68
2023-04-19T01:20:32.744Z,1021.78
2023-04-19T01:21:32.742Z,1021.78
2023-04-19T01:22:32.741Z,1021.76
2023-04-19T01:23:32.764Z,1021.78
2023-04-19T01:24:32.766Z,1021.74
2023-04-19T01:25:32.780Z,1021.75
2023-04-19T01:26:32.790Z,1021.72
2023-04-19T01:27:32.816Z,1021.76
2023-04-19T01:28:32.808Z,1021.80
2023-04-19T01:29:32.824Z,1021.72
2023-04-19T01:30:32.826Z,1021.71
2023-04-19T01:31:32.889Z,1021.72
2023-04-19T01:32:32.873Z,1021.70
2023-04-19T01:33:32.865Z,1021.76
2023-04-19T01:34:32.875Z,1021.74
2023-04-19T01:35:32.884Z,1021.73
2023-04-19T01:36:32.895Z,1021.71
2023-04-19T01:37:32.908Z,1021.63
2023-04-19T01:38:32.918Z,1021.66
2023-04-19T01:39:32.931Z,1021.71
2023-04-19T01:40:32.941Z,1021.69
2023-04-19T01:41:32.963Z,1021.67
2023-04-19T01:42:32.962Z,1021.66
2023-04-19T01:43:32.971Z,1021.63
2023-04-19T01:44:32.984Z,1021.65
2023-04-19T01:45:32.994Z,1021.68
2023-04-19T01:46:33.011Z,1021.67
2023-04-19T01:47:33.046Z,1021.63
2023-04-19T01:48:33.025Z,1021.66
2023-04-19T01:49:33.033Z,1021.67
2023-04-19T01:50:33.057Z,1021.60
2023-04-19T01:51:33.056Z,1021.65
2023-04-19T01:52:33.069Z,1021.59
2023-04-19T01:53:33.078Z,1021.65
2023-04-19T01:54:33.093Z,1021.63
2023-04-19T01:55:33.104Z,1021.56
2023-04-19T01:56:33.110Z,1021.58
2023-04-19T01:57:33.122Z,1021.52
2023-04-19T01:58:33.129Z,1021.55
2023-04-19T01:59:33.147Z,1021.58
2023-04-19T02:00:33.175Z,1021.55
2023-04-19T02:01:33.176Z,1021.56
2023-04-19T02:02:33.265Z,1021.57
2023-04-19T02:03:33.281Z,1021.55
2023-04-19T02:04:33.191Z,1021.56
2023-04-19T02:05:33.200Z,1021.55
2023-04-19T02:06:33.214Z,1021.55
2023-04-19T02:07:33.230Z,1021.53
2023-04-19T02:08:33.237Z,1021.52
2023-04-19T02:09:33.244Z,1021.57
2023-04-19T02:10:33.256Z,1021.49
2023-04-19T02:11:33.278Z,1021.53
2023-04-19T02:12:33.285Z,1021.46
2023-04-19T02:13:33.293Z,1021.49
2023-04-19T02:14:33.297Z,1021.49
2023-04-19T02:15:33.311Z,1021.53
2023-04-19T02:16:35.613Z,1021.48
2023-04-19T02:17:33.381Z,1021.48
2023-04-19T02:18:33.351Z,1021.47
2023-04-19T02:19:33.351Z,1021.46
2023-04-19T02:20:33.360Z,1021.46
2023-04-19T02:21:33.373Z,1021.46
2023-04-19T02:22:33.381Z,1021.42
2023-04-19T02:23:33.403Z,1021.44
2023-04-19T02:24:33.407Z,1021.47
2023-04-19T02:25:33.412Z,1021.40
2023-04-19T02:26:33.425Z,1021.45
2023-04-19T02:27:33.431Z,1021.43
2023-04-19T02:28:33.443Z,1021.46
2023-04-19T02:29:33.454Z,1021.43
2023-04-19T02:30:33.468Z,1021.46
2023-04-19T02:31:33.541Z,1021.43
2023-04-19T02:32:33.496Z,1021.39
2023-04-19T02:33:33.508Z,1021.37
2023-04-19T02:34:33.502Z,1021.40
2023-04-19T02:35:33.514Z,1021.41
2023-04-19T02:36:33.526Z,1021.39
2023-04-19T02:37:33.533Z,1021.35
2023-04-19T02:38:33.570Z,1021.31
2023-04-19T02:39:33.554Z,1021.35
2023-04-19T02:40:33.568Z,1021.38
2023-04-19T02:41:33.574Z,1021.36
2023-04-19T02:42:33.584Z,1021.37
2023-04-19T02:43:33.594Z,1021.28
2023-04-19T02:44:33.606Z,1021.29
2023-04-19T02:45:33.615Z,1021.32
2023-04-19T02:46:33.769Z,1021.30
2023-04-19T02:47:33.707Z,1021.25
2023-04-19T02:48:33.642Z,1021.25
2023-04-19T02:49:33.658Z,1021.25
2023-04-19T02:50:33.661Z,1021.23
2023-04-19T02:51:33.685Z,1021.23
2023-04-19T02:52:33.681Z,1021.24
2023-04-19T02:53:33.705Z,1021.22
2023-04-19T02:54:33.728Z,1021.26
2023-04-19T02:55:33.715Z,1021.21
2023-04-19T02:56:33.723Z,1021.19
2023-04-19T02:57:33.731Z,1021.24
2023-04-19T02:58:33.751Z,1021.22
2023-04-19T02:59:33.749Z,1021.16
2023-04-19T03:00:33.761Z,1021.22
2023-04-19T03:01:33.812Z,1021.16
2023-04-19T03:02:34.013Z,1021.19
2023-04-19T03:03:33.918Z,1021.18
2023-04-19T03:04:33.924Z,1021.16
2023-04-19T03:05:33.810Z,1021.16
2023-04-19T03:06:33.821Z,1021.15
2023-04-19T03:07:33.831Z,1021.16
2023-04-19T03:08:33.854Z,1021.13
2023-04-19T03:09:33.857Z,1021.07
2023-04-19T03:10:33.870Z,1021.10
2023-04-19T03:11:33.880Z,1021.10
2023-04-19T03:12:33.880Z,1021.08
2023-04-19T03:13:33.887Z,1021.07
2023-04-19T03:14:33.898Z,1021.07
2023-04-19T03:15:33.941Z,1021.04
2023-04-19T03:16:33.922Z,1021.00
2023-04-19T03:17:33.966Z,1021.05
2023-04-19T03:18:33.938Z,1021.04
2023-04-19T03:19:33.945Z,1021.05
2023-04-19T03:20:33.954Z,1021.02
2023-04-19T03:21:33.965Z,1021.04
2023-04-19T03:22:33.977Z,1021.05
2023-04-19T03:23:33.981Z,1020.99
2023-04-19T03:24:35.516Z,1021.01
2023-04-19T03:25:34.006Z,1021.00
2023-04-19T03:26:34.007Z,1021.03
2023-04-19T03:27:34.025Z,1021.00
2023-04-19T03:28:34.026Z,1020.98
2023-04-19T03:29:34.036Z,1021.01
2023-04-19T03:30:34.054Z,1020.95
2023-04-19T03:31:34.130Z,1020.94
2023-04-19T03:32:34.078Z,1020.96
2023-04-19T03:33:34.074Z,1020.90
2023-04-19T03:34:34.081Z,1020.90
2023-04-19T03:35:34.094Z,1020.89
2023-04-19T03:36:34.106Z,1020.86
2023-04-19T03:37:34.113Z,1020.89
2023-04-19T03:38:34.125Z,1020.82
2023-04-19T03:39:34.128Z,1020.84
2023-04-19T03:40:34.143Z,1020.85
2023-04-19T03:41:34.150Z,1020.85
2023-04-19T03:42:34.166Z,1020.77
2023-04-19T03:43:34.169Z,1020.77
2023-04-19T03:44:34.180Z,1020.77
2023-04-19T03:45:34.192Z,1020.78
2023-04-19T03:46:34.224Z,1020.79
2023-04-19T03:47:34.262Z,1020.72
2023-04-19T03:48:34.218Z,1020.74
2023-04-19T03:49:34.230Z,1020.77
2023-04-19T03:50:34.232Z,1020.77
2023-04-19T03:51:34.244Z,1020.78
2023-04-19T03:52:34.258Z,1020.76
2023-04-19T03:53:34.263Z,1020.79
2023-04-19T03:54:34.268Z,1020.82
2023-04-19T03:55:34.288Z,1020.75
2023-04-19T03:56:34.297Z,1020.77
2023-04-19T03:57:34.310Z,1020.79
2023-04-19T03:58:34.312Z,1020.79
2023-04-19T03:59:34.321Z,1020.80
2023-04-19T04:00:34.332Z,1020.79
2023-04-19T04:01:34.340Z,1020.78
2023-04-19T04:02:34.502Z,1020.78
2023-04-19T04:03:34.528Z,1020.72
2023-04-19T04:04:34.784Z,1020.76
2023-04-19T04:05:34.511Z,1020.78
2023-04-19T04:06:34.385Z,1020.76
2023-04-19T04:07:34.443Z,1020.78
2023-04-19T04:08:34.402Z,1020.76
2023-04-19T04:09:34.409Z,1020.77
2023-04-19T04:10:34.422Z,1020.78
2023-04-19T04:11:34.431Z,1020.76
2023-04-19T04:12:34.440Z,1020.80
2023-04-19T04:13:34.469Z,1020.80
2023-04-19T04:14:34.459Z,1020.82
2023-04-19T04:15:34.467Z,1020.84
2023-04-19T04:16:34.527Z,1020.84
2023-04-19T04:17:34.527Z,1020.80
2023-04-19T04:18:34.508Z,1020.82
2023-04-19T04:19:34.506Z,1020.86
2023-04-19T04:20:34.514Z,1020.82
2023-04-19T04:21:34.519Z,1020.77
2023-04-19T04:22:34.532Z,1020.83
2023-04-19T04:23:34.541Z,1020.81
2023-04-19T04:24:34.546Z,1020.79
2023-04-19T04:25:34.570Z,1020.79
2023-04-19T04:26:34.569Z,1020.79
2023-04-19T04:27:34.585Z,1020.77
2023-04-19T04:28:34.611Z,1020.74
2023-04-19T04:29:34.602Z,1020.78
2023-04-19T04:30:34.614Z,1020.71
2023-04-19T04:31:34.660Z,1020.73
2023-04-19T04:32:34.697Z,1020.75
2023-04-19T04:33:34.658Z,1020.73
2023-04-19T04:34:34.654Z,1020.77
2023-04-19T04:35:34.670Z,1020.76
2023-04-19T04:36:34.679Z,1020.75
2023-04-19T04:37:34.695Z,1020.72
2023-04-19T04:38:34.706Z,1020.72
2023-04-19T04:39:34.706Z,1020.75
2023-04-19T04:40:34.723Z,1020.75
2023-04-19T04:41:34.727Z,1020.64
2023-04-19T04:42:34.753Z,1020.54
2023-04-19T04:43:34.747Z,1020.66
2023-04-19T04:44:34.756Z,1020.61
2023-04-19T04:45:34.778Z,1020.68
2023-04-19T04:46:34.778Z,1020.61
2023-04-19T04:47:34.874Z,1020.60
2023-04-19T04:48:34.801Z,1020.59
2023-04-19T04:49:34.816Z,1020.60
2023-04-19T04:50:34.817Z,1020.53
2023-04-19T04:51:34.847Z,1020.54
2023-04-19T04:52:34.839Z,1020.54
2023-04-19T04:53:34.847Z,1020.49
2023-04-19T04:54:34.851Z,1020.48
2023-04-19T04:55:34.871Z,1020.50
2023-04-19T04:56:34.913Z,1020.49
2023-04-19T04:57:34.884Z,1020.53
2023-04-19T04:58:34.894Z,1020.51
2023-04-19T04:59:34.903Z,1020.52
2023-04-19T05:00:34.917Z,1020.49
2023-04-19T05:01:34.950Z,1020.52
2023-04-19T05:02:35.012Z,1020.52
2023-04-19T05:03:35.001Z,1020.39
2023-04-19T05:04:34.967Z,1020.56
2023-04-19T05:05:34.960Z,1020.50
2023-04-19T05:06:34.973Z,1020.54
2023-04-19T05:07:34.984Z,1020.44
2023-04-19T05:08:34.985Z,1020.50
2023-04-19T05:09:35.007Z,1020.43
2023-04-19T05:10:35.022Z,1020.46
2023-04-19T05:11:35.026Z,1020.48
2023-04-19T05:12:35.029Z,1020.41
2023-04-19T05:13:35.034Z,1020.36
2023-04-19T05:14:35.054Z,1020.42
2023-04-19T05:15:35.052Z,1020.40
2023-04-19T05:16:35.094Z,1020.40
2023-04-19T05:17:35.105Z,1020.36
2023-04-19T05:18:35.075Z,1020.43
2023-04-19T05:19:35.086Z,1020.45
2023-04-19T05:20:35.110Z,1020.48
2023-04-19T05:21:35.165Z,1020.45
2023-04-19T05:22:35.118Z,1020.44
2023-04-19T05:23:35.134Z,1020.42
2023-04-19T05:24:35.138Z,1020.39
2023-04-19T05:25:35.148Z,1020.37
2023-04-19T05:26:35.168Z,1020.35
2023-04-19T05:27:35.165Z,1020.26
2023-04-19T05:28:35.172Z,1020.31
2023-04-19T05:29:35.182Z,1020.27
2023-04-19T05:30:35.198Z,1020.30
2023-04-19T05:31:35.279Z,1020.24
2023-04-19T05:32:35.299Z,1020.31
2023-04-19T05:33:35.221Z,1020.31
2023-04-19T05:34:35.232Z,1020.24
2023-04-19T05:35:35.242Z,1020.26
2023-04-19T05:36:35.257Z,1020.25
2023-04-19T05:37:35.265Z,1020.25
2023-04-19T05:38:35.274Z,1020.24
2023-04-19T05:39:35.286Z,1020.23
2023-04-19T05:40:35.293Z,1020.21
2023-04-19T05:41:35.309Z,1020.20
2023-04-19T05:42:35.310Z,1020.25
2023-04-19T05:43:35.325Z,1020.28
2023-04-19T05:44:35.335Z,1020.22
2023-04-19T05:45:35.349Z,1020.25
2023-04-19T05:46:35.428Z,1020.20
2023-04-19T05:47:35.369Z,1020.17
2023-04-19T05:48:35.369Z,1020.19
2023-04-19T05:49:35.383Z,1020.26
2023-04-19T05:50:35.392Z,1020.15
2023-04-19T05:51:35.401Z,1020.18
2023-04-19T05:52:35.419Z,1020.16
2023-04-19T05:53:35.434Z,1020.19
2023-04-19T05:54:35.430Z,1020.21
2023-04-19T05:55:35.444Z,1020.16
2023-04-19T05:56:35.452Z,1020.22
2023-04-19T05:57:35.463Z,1020.21
2023-04-19T05:58:35.471Z,1020.25
2023-04-19T05:59:35.489Z,1020.31
2023-04-19T06:00:35.513Z,1020.22
2023-04-19T06:01:35.500Z,1020.22
2023-04-19T06:02:35.618Z,1020.28
2023-04-19T06:03:35.659Z,1020.22
2023-04-19T06:04:35.635Z,1020.30
2023-04-19T06:05:35.565Z,1020.26
2023-04-19T06:06:35.549Z,1020.24
2023-04-19T06:07:40.226Z,1020.32
2023-04-19T06:08:35.574Z,1020.22
2023-04-19T06:09:35.598Z,1020.26
2023-04-19T06:10:48.971Z,1020.29
2023-04-19T06:11:47.144Z,1020.31
2023-04-19T06:12:35.612Z,1020.30
2023-04-19T06:13:35.627Z,1020.26
2023-04-19T06:14:35.631Z,1020.27
2023-04-19T06:15:35.652Z,1020.33
2023-04-19T06:16:35.678Z,1020.28
2023-04-19T06:17:35.736Z,1020.25
2023-04-19T06:18:35.683Z,1020.25
2023-04-19T06:19:35.690Z,1020.22
2023-04-19T06:20:35.698Z,1020.27
2023-04-19T06:21:35.728Z,1020.29
2023-04-19T06:22:35.723Z,1020.20
2023-04-19T06:23:35.740Z,1020.22
2023-04-19T06:24:35.750Z,1020.27
2023-04-19T06:25:35.755Z,1020.20
2023-04-19T06:26:35.774Z,1020.23
2023-04-19T06:27:35.777Z,1020.26
2023-04-19T06:28:35.787Z,1020.24
2023-04-19T06:29:35.826Z,1020.09
2023-04-19T06:30:35.817Z,1020.28
2023-04-19T06:31:35.829Z,1020.11
2023-04-19T06:32:35.880Z,1020.18
2023-04-19T06:33:35.879Z,1020.19
2023-04-19T06:34:35.861Z,1020.17
2023-04-19T06:35:35.879Z,1020.17
2023-04-19T06:36:35.891Z,1020.30
2023-04-19T06:37:35.907Z,1020.23
2023-04-19T06:38:35.924Z,1020.35
2023-04-19T06:39:35.925Z,1020.24
2023-04-19T06:40:35.940Z,1020.15
2023-04-19T06:41:35.955Z,1020.18
2023-04-19T06:42:35.967Z,1020.20
2023-04-19T06:43:35.982Z,1020.20
2023-04-19T06:44:35.993Z,1020.13
2023-04-19T06:45:36.048Z,1020.15
2023-04-19T06:46:36.020Z,1020.11
2023-04-19T06:47:36.101Z,1020.12
2023-04-19T06:48:36.058Z,1020.10
2023-04-19T06:49:36.064Z,1020.19
2023-04-19T06:50:36.085Z,1020.11
2023-04-19T06:51:36.093Z,1020.07
2023-04-19T06:52:36.106Z,1020.01
2023-04-19T06:53:36.121Z,1020.11
2023-04-19T06:54:36.135Z,1020.07
2023-04-19T06:55:36.163Z,1020.03
2023-04-19T06:56:36.168Z,1019.89
2023-04-19T06:57:36.183Z,1020.02
2023-04-19T06:58:36.216Z,1019.97
2023-04-19T06:59:36.210Z,1019.91
2023-04-19T07:00:36.245Z,1019.96
2023-04-19T07:01:36.264Z,1019.88
2023-04-19T07:02:36.423Z,1019.86
2023-04-19T07:03:36.416Z,1019.86
2023-04-19T07:04:36.395Z,1019.84
2023-04-19T07:05:36.412Z,1019.82
2023-04-19T07:06:36.317Z,1019.85
2023-04-19T07:07:36.332Z,1019.81
2023-04-19T07:08:49.272Z,1019.70
2023-04-19T07:09:36.371Z,1019.77
2023-04-19T07:10:36.380Z,1019.73
2023-04-19T07:11:36.397Z,1019.72
2023-04-19T07:12:36.420Z,1019.71
2023-04-19T07:13:36.435Z,1019.63
2023-04-19T07:14:36.440Z,1019.67
2023-04-19T07:15:36.544Z,1019.71
2023-04-19T07:16:36.483Z,1019.58
2023-04-19T07:17:36.626Z,1019.66
2023-04-19T07:18:36.507Z,1019.67
2023-04-19T07:19:36.541Z,1019.65
2023-04-19T07:20:36.536Z,1019.61
2023-04-19T07:21:36.556Z,1019.56
2023-04-19T07:22:36.585Z,1019.58
2023-04-19T07:23:36.588Z,1019.62
2023-04-19T07:24:36.610Z,1019.59
2023-04-19T07:25:36.618Z,1019.56
2023-04-19T07:26:36.646Z,1019.57
2023-04-19T07:27:36.654Z,1019.60
2023-04-19T07:28:36.670Z,1019.59
2023-04-19T07:29:36.696Z,1019.63
2023-04-19T07:30:36.715Z,1019.68
2023-04-19T07:31:36.772Z,1019.54
2023-04-19T07:32:36.943Z,1019.61
2023-04-19T07:33:36.755Z,1019.50
2023-04-19T07:34:36.772Z,1019.60
2023-04-19T07:35:36.790Z,1019.56
2023-04-19T07:36:36.810Z,1019.68
2023-04-19T07:37:36.825Z,1019.55
2023-04-19T07:38:36.843Z,1019.56
2023-04-19T07:39:36.858Z,1019.48
2023-04-19T07:40:36.876Z,1019.48
2023-04-19T07:41:36.896Z,1019.50
2023-04-19T07:42:36.913Z,1019.53
2023-04-19T07:43:38.151Z,1019.42
2023-04-19T07:44:36.946Z,1019.42
2023-04-19T07:45:36.964Z,1019.42
2023-04-19T07:46:37.018Z,1019.32
2023-04-19T07:47:37.104Z,1019.33
2023-04-19T07:48:37.014Z,1019.31
2023-04-19T07:49:37.037Z,1019.37
2023-04-19T07:50:37.048Z,1019.30
2023-04-19T07:51:37.073Z,1019.25
2023-04-19T07:52:37.099Z,1019.28
2023-04-19T07:53:37.105Z,1019.24
2023-04-19T07:54:37.120Z,1019.28
2023-04-19T07:55:37.144Z,1019.24
2023-04-19T07:56:37.166Z,1019.26
2023-04-19T07:57:37.179Z,1019.26
2023-04-19T07:58:37.197Z,1019.30
2023-04-19T07:59:37.213Z,1019.21
2023-04-19T08:00:37.235Z,1019.17
2023-04-19T08:01:37.394Z,1019.12
2023-04-19T08:02:37.332Z,1019.15
2023-04-19T08:03:37.440Z,1019.20
2023-04-19T08:04:37.563Z,1019.07
2023-04-19T08:05:37.349Z,1019.07
2023-04-19T08:06:37.337Z,1019.13
2023-04-19T08:07:37.363Z,1019.10
2023-04-19T08:08:37.375Z,1019.15
2023-04-19T08:09:37.458Z,1019.19
2023-04-19T08:10:37.408Z,1019.11
2023-04-19T08:11:37.426Z,1019.13
2023-04-19T08:12:45.021Z,1019.14
2023-04-19T08:13:37.815Z,1019.11
2023-04-19T08:14:47.157Z,1019.08
2023-04-19T08:16:20.175Z,1019.05
2023-04-19T08:17:06.380Z,1019.05
2023-04-19T08:17:42.127Z,1019.12
2023-04-19T08:18:37.691Z,1018.95
2023-04-19T08:19:37.561Z,1018.97
2023-04-19T08:20:37.578Z,1018.92
2023-04-19T08:21:41.000Z,1019.05
2023-04-19T08:22:37.615Z,1019.03
2023-04-19T08:23:47.380Z,1019.01
2023-04-19T08:24:37.636Z,1018.97
2023-04-19T08:25:37.665Z,1019.11
2023-04-19T08:26:37.678Z,1019.03
2023-04-19T08:27:37.692Z,1018.89
2023-04-19T08:28:37.706Z,1019.03
2023-04-19T08:29:37.712Z,1018.87
2023-04-19T08:30:37.727Z,1018.95
2023-04-19T08:31:37.770Z,1018.84
2023-04-19T08:32:37.795Z,1019.02
2023-04-19T08:33:37.775Z,1018.99
2023-04-19T08:34:37.787Z,1018.97
2023-04-19T08:35:37.802Z,1018.94
2023-04-19T08:36:43.606Z,1018.93
2023-04-19T08:37:37.862Z,1018.92
2023-04-19T08:38:37.846Z,1019.08
2023-04-19T08:39:38.043Z,1018.86
2023-04-19T08:40:37.874Z,1019.06
2023-04-19T08:41:37.889Z,1019.04
2023-04-19T08:42:37.901Z,1018.98
2023-04-19T08:43:39.213Z,1018.89
2023-04-19T08:44:43.306Z,1019.03
2023-04-19T08:45:38.006Z,1019.01
2023-04-19T08:46:37.961Z,1018.98
2023-04-19T08:47:48.236Z,1018.86
2023-04-19T08:48:38.029Z,1018.94
2023-04-19T08:49:39.954Z,1019.01
2023-04-19T08:50:45.613Z,1019.05
2023-04-19T08:51:38.033Z,1019.00
2023-04-19T08:52:47.827Z,1018.88
2023-04-19T08:53:38.064Z,1018.97
2023-04-19T08:54:38.080Z,1018.98
2023-04-19T08:55:39.852Z,1018.97
2023-04-19T08:56:38.113Z,1018.96
2023-04-19T08:57:38.124Z,1018.93
2023-04-19T08:58:54.703Z,1019.00
2023-04-19T08:59:38.154Z,1018.97
2023-04-19T09:00:38.171Z,1019.02
2023-04-19T09:01:38.188Z,1018.96
2023-04-19T09:02:38.446Z,1018.89
2023-04-19T09:03:51.182Z,1018.93
2023-04-19T09:04:38.455Z,1018.91
2023-04-19T09:05:38.634Z,1019.02
2023-04-19T09:06:38.508Z,1018.90
2023-04-19T09:07:38.301Z,1018.89
2023-04-19T09:08:38.293Z,1018.81
2023-04-19T09:09:48.841Z,1018.76
2023-04-19T09:10:38.325Z,1018.87
2023-04-19T09:11:38.339Z,1018.70
2023-04-19T09:12:38.364Z,1018.82
2023-04-19T09:13:38.379Z,1018.78
2023-04-19T09:14:40.035Z,1018.80
2023-04-19T09:15:38.476Z,1018.63
2023-04-19T09:16:38.424Z,1018.76
2023-04-19T09:17:38.768Z,1018.59
2023-04-19T09:18:48.764Z,1018.65
2023-04-19T09:19:38.525Z,1018.61
2023-04-19T09:20:38.629Z,1018.45
2023-04-19T09:21:38.581Z,1018.43
2023-04-19T09:22:38.623Z,1018.35
2023-04-19T09:23:38.580Z,1018.53
2023-04-19T09:25:04.502Z,1018.36
2023-04-19T09:25:52.812Z,1018.28
2023-04-19T09:26:38.628Z,1018.37
2023-04-19T09:27:38.611Z,1018.23
2023-04-19T09:28:38.632Z,1018.39
2023-04-19T09:29:38.716Z,1018.31
2023-04-19T09:30:50.214Z,1018.35
2023-04-19T09:32:38.847Z,1018.35
2023-04-19T09:33:38.770Z,1018.35
2023-04-19T09:34:38.716Z,1018.30
2023-04-19T09:35:38.745Z,1018.34
2023-04-19T09:36:38.754Z,1018.30
2023-04-19T09:37:57.196Z,1018.46
2023-04-19T09:38:38.786Z,1018.47
2023-04-19T09:39:38.815Z,1018.43
2023-04-19T09:40:38.822Z,1018.42
2023-04-19T09:41:39.956Z,1018.42
2023-04-19T09:42:55.447Z,1018.42
2023-04-19T09:43:58.914Z,1018.30
2023-04-19T09:45:38.911Z,1018.33
2023-04-19T09:46:38.962Z,1018.28
2023-04-19T09:47:38.968Z,1018.31
2023-04-19T09:48:38.954Z,1018.20
2023-04-19T09:49:48.595Z,1018.22
2023-04-19T09:50:53.601Z,1018.21
2023-04-19T09:51:39.002Z,1018.30
2023-04-19T09:52:39.022Z,1018.14
2023-04-19T09:53:39.042Z,1018.21
2023-04-19T09:54:39.056Z,1018.17
2023-04-19T09:55:48.867Z,1018.26
2023-04-19T09:56:39.091Z,1018.26
2023-04-19T09:57:39.128Z,1018.08
2023-04-19T09:58:50.089Z,1018.12
2023-04-19T09:59:39.138Z,1018.03
2023-04-19T10:00:47.820Z,1018.04
2023-04-19T10:01:39.199Z,1017.98
2023-04-19T10:02:39.286Z,1018.08
2023-04-19T10:03:39.428Z,1018.08
2023-04-19T10:05:39.343Z,1017.95
2023-04-19T10:06:58.271Z,1017.92
2023-04-19T10:07:39.344Z,1017.88
2023-04-19T10:08:39.297Z,1017.87
2023-04-19T10:09:49.461Z,1017.95
2023-04-19T10:10:42.322Z,1017.92
2023-04-19T10:11:39.357Z,1017.89
2023-04-19T10:13:07.013Z,1017.90
2023-04-19T10:13:39.392Z,1017.97
2023-04-19T10:14:39.396Z,1018.00
2023-04-19T10:15:50.568Z,1017.79
2023-04-19T10:16:39.456Z,1017.80
2023-04-19T10:17:39.485Z,1017.85
2023-04-19T10:18:39.470Z,1017.91
2023-04-19T10:19:39.483Z,1017.76
2023-04-19T10:20:39.510Z,1017.94
2023-04-19T10:21:39.550Z,1017.94
2023-04-19T10:22:39.541Z,1017.74
2023-04-19T10:23:39.558Z,1017.81
2023-04-19T10:24:39.593Z,1017.78
2023-04-19T10:25:39.612Z,1017.77
2023-04-19T10:26:39.616Z,1017.82
2023-04-19T10:27:39.641Z,1017.82
2023-04-19T10:28:39.656Z,1017.82
2023-04-19T10:29:39.674Z,1017.67
2023-04-19T10:30:39.696Z,1017.74
2023-04-19T10:31:39.795Z,1017.69
2023-04-19T10:32:39.771Z,1017.62
2023-04-19T10:33:39.757Z,1017.80
2023-04-19T10:34:39.796Z,1017.70
2023-04-19T10:35:39.802Z,1017.91
2023-04-19T10:36:39.837Z,1017.69
2023-04-19T10:37:39.835Z,1017.67
2023-04-19T10:38:39.853Z,1017.80
2023-04-19T10:39:39.878Z,1017.65
2023-04-19T10:40:39.970Z,1017.55
2023-04-19T10:41:39.916Z,1017.57
2023-04-19T10:42:39.935Z,1017.59
2023-04-19T10:43:39.959Z,1017.68
2023-04-19T10:44:39.985Z,1017.75
2023-04-19T10:45:40.018Z,1017.72
2023-04-19T10:46:40.175Z,1017.75
2023-04-19T10:47:40.086Z,1017.73
2023-04-19T10:48:40.069Z,1017.72
2023-04-19T10:49:40.081Z,1017.70
2023-04-19T10:50:40.150Z,1017.71
2023-04-19T10:51:40.125Z,1017.78
2023-04-19T10:52:40.151Z,1017.74
2023-04-19T10:53:40.168Z,1017.73
2023-04-19T10:54:40.198Z,1017.68
2023-04-19T10:55:40.212Z,1017.69
2023-04-19T10:56:40.237Z,1017.67
2023-04-19T10:57:40.259Z,1017.70
2023-04-19T10:58:40.281Z,1017.57
2023-04-19T10:59:40.310Z,1017.67
2023-04-19T11:00:40.361Z,1017.70
2023-04-19T11:01:40.687Z,1017.71
2023-04-19T11:02:40.533Z,1017.76
2023-04-19T11:03:40.540Z,1017.70
2023-04-19T11:04:40.566Z,1017.65
2023-04-19T11:05:40.450Z,1017.71
2023-04-19T11:06:40.481Z,1017.68
2023-04-19T11:07:40.499Z,1017.62
2023-04-19T11:08:40.527Z,1017.61
2023-04-19T11:09:40.546Z,1017.70
2023-04-19T11:10:40.596Z,1017.54
2023-04-19T11:11:40.596Z,1017.62
2023-04-19T11:12:40.621Z,1017.64
2023-04-19T11:13:40.646Z,1017.60
2023-04-19T11:14:40.687Z,1017.53
2023-04-19T11:15:40.713Z,1017.61
2023-04-19T11:16:46.097Z,1017.55
2023-04-19T11:17:40.766Z,1017.56
2023-04-19T11:18:40.769Z,1017.49
2023-04-19T11:19:40.794Z,1017.40
2023-04-19T11:20:40.903Z,1017.56
2023-04-19T11:21:40.843Z,1017.50
2023-04-19T11:22:40.873Z,1017.49
2023-04-19T11:23:40.902Z,1017.57
2023-04-19T11:24:40.921Z,1017.53
2023-04-19T11:25:40.946Z,1017.41
2023-04-19T11:26:40.965Z,1017.40
2023-04-19T11:27:40.988Z,1017.46
2023-04-19T11:28:41.023Z,1017.54
2023-04-19T11:29:41.035Z,1017.52
2023-04-19T11:30:41.125Z,1017.56
2023-04-19T11:31:41.149Z,1017.50
2023-04-19T11:32:41.118Z,1017.48
2023-04-19T11:33:41.134Z,1017.48
2023-04-19T11:34:41.154Z,1017.43
2023-04-19T11:35:41.175Z,1017.44
2023-04-19T11:36:41.196Z,1017.46
2023-04-19T11:37:41.218Z,1017.48
2023-04-19T11:38:41.239Z,1017.48
2023-04-19T11:39:41.267Z,1017.44
2023-04-19T11:40:41.289Z,1017.47
2023-04-19T11:41:41.312Z,1017.46
2023-04-19T11:42:41.335Z,1017.43
2023-04-19T11:43:41.372Z,1017.36
2023-04-19T11:44:41.380Z,1017.33
2023-04-19T11:45:41.410Z,1017.43
2023-04-19T11:46:41.497Z,1017.39
2023-04-19T11:47:41.488Z,1017.59
2023-04-19T11:48:41.506Z,1017.59
2023-04-19T11:49:41.495Z,1017.49
2023-04-19T11:50:41.530Z,1017.41
2023-04-19T11:51:41.546Z,1017.24
2023-04-19T11:52:41.554Z,1017.22
2023-04-19T11:53:41.627Z,1017.21
2023-04-19T11:54:41.602Z,1017.24
2023-04-19T11:55:41.624Z,1017.27
2023-04-19T11:56:41.644Z,1017.30
2023-04-19T11:57:41.771Z,1017.35
2023-04-19T11:58:41.685Z,1017.41
2023-04-19T11:59:41.718Z,1017.27
2023-04-19T12:00:41.761Z,1017.32
2023-04-19T12:01:41.751Z,1017.20
2023-04-19T12:02:41.898Z,1017.20
2023-04-19T12:03:41.938Z,1017.06
2023-04-19T12:04:42.103Z,1017.20
2023-04-19T12:05:41.963Z,1017.17
2023-04-19T12:06:41.861Z,1017.25
2023-04-19T12:07:41.881Z,1017.22
2023-04-19T12:08:41.902Z,1017.28